Terminal Aerodrome Forecast
Issued by NWS

Home | Current Version | Previous Version | Text Only | Print | Product List | Glossary On
Versions: 1 2 3 4 5 6 7 8 9 10 11 12 13 14 15 16 17 18
000
FTUS41 KGYX 260541
TAFHIE
TAF
KHIE 260541Z 2606/2706 VRB03KT 4SM -SHRA BR OVC070
     FM261200 26010KT P6SM BKN070
     FM270000 VRB03KT P6SM SCT200=

USA.gov is the U.S. government's official web portal to all federal, state and local government web resources and services.